Terminal Aerodrome Forecast
Issued by NWS

Home | Current Version | Previous Version | Text Only | Print | Product List | Glossary Off
Versions: 1 2 3 4 5 6 7 8 9 10 11 12 13 14 15 16 17 18 19 20 21 22 23 24 25 26 27 28 29 30 31 32 33 34 35

000
FTUS43 KLOT 181700 RRA
TAFDPA
TAF
KDPA 181742Z 1818/1918 36011G16KT P6SM BKN025 OVC035
     FM182200 36008KT P6SM BKN040
     FM190200 36003KT P6SM FEW040
     FM190800 VRB03KT P6SM FEW200
     FM191600 23008KT P6SM FEW250=

USA.gov is the U.S. government's official web portal to all federal, state and local government web resources and services.